This is the latest recevied weather packets stored in our database for station/object ZL2VAX. If no packets are shown the sender has not sent any weather packets the latest 10 day(s).
| Time | Temp. | Humidity | Pressure | Rain* | Wind** | Luminosity | Snow |
|---|---|---|---|---|---|---|---|
| 1777612543 | 10.56° C | 81% | 1036.1 hPa | 0 mm | - | - | - |
| 1777605372 | 16.11° C | 60% | 1036.6 hPa | 0 mm | - | - | - |
| 1777599347 | 16.11° C | 62% | 1037.3 hPa | 0 mm | - | - | - |
| 1777593923 | 15° C | 65% | 1038.8 hPa | 0 mm | - | - | - |
| 1777593341 | 14.44° C | 69% | 1039 hPa | 0 mm | - | - | - |
| 1777590369 | 13.33° C | 72% | 1039.3 hPa | 0 mm | - | - | - |
| 1777586150 | 7.78° C | 95% | 1039.7 hPa | 0 mm | - | - | - |
| 1777584945 | 6.11° C | 96% | 1039.8 hPa | 0 mm | - | - | - |
| 1777582533 | 4.44° C | 97% | 1039.9 hPa | 0 mm | - | - | - |
| 1777579520 | 2.22° C | 96% | 1039.6 hPa | 0 mm | - | - | - |
| 1777578376 | 1.67° C | 96% | 1039.5 hPa | 0 mm | - | - | - |
| 1777577773 | 1.11° C | 96% | 1039.4 hPa | 0 mm | - | - | - |
| 1777574157 | 1.11° C | 96% | 1039.4 hPa | 0 mm | - | - | - |
| 1777569939 | 1.11° C | 96% | 1039.2 hPa | 0 mm | - | - | - |
| 1777567529 | 1.11° C | 96% | 1039.3 hPa | 0 mm | - | - | - |
| 1777564516 | 1.67° C | 96% | 1039.4 hPa | 0 mm | - | - | - |
| 1777562790 | 2.78° C | 96% | 1039.5 hPa | 0 mm | - | - | - |
| 1777560962 | 2.78° C | 96% | 1039.6 hPa | 0 mm | - | - | - |
| 1777560399 | 2.78° C | 95% | 1039.7 hPa | 0 mm | - | - | - |
| 1777559153 | 2.78° C | 95% | 1039.8 hPa | 0 mm | - | - | - |
| 1777558551 | 3.33° C | 95% | 1040 hPa | 0 mm | - | - | - |
| 1777545355 | 4.44° C | 93% | 1040 hPa | 0 mm | - | - | - |
| 1777541135 | 4.44° C | 91% | 1039.7 hPa | 0 mm | - | - | - |
| 1777537520 | 6.67° C | 90% | 1039.5 hPa | 0 mm | - | - | - |
| 1777535772 | 7.22° C | 89% | 1039.6 hPa | 0 mm | - | - | - |
* Rain latest hour (hover to see other rain measurements)
** Current wind speed in m/s (hover to see current wind gust speed)